sensor_id;sensor_type;location;lat;lon;timestamp;pressure;altitude;pressure_sealevel;temperature;humidity
65718;BME280;52445;52.466;-1.016;2023-06-22T00:02:26;100388.28;;;19.40;61.23
65718;BME280;52445;52.466;-1.016;2023-06-22T00:04:53;100393.66;;;19.37;60.73
65718;BME280;52445;52.466;-1.016;2023-06-22T00:07:19;100388.50;;;19.34;61.06
65718;BME280;52445;52.466;-1.016;2023-06-22T00:09:46;100383.34;;;19.31;61.14
65718;BME280;52445;52.466;-1.016;2023-06-22T00:12:13;100381.72;;;19.26;61.32
65718;BME280;52445;52.466;-1.016;2023-06-22T00:14:39;100385.31;;;19.24;61.17
65718;BME280;52445;52.466;-1.016;2023-06-22T00:17:06;100380.25;;;19.19;60.93
65718;BME280;52445;52.466;-1.016;2023-06-22T00:19:33;100379.53;;;19.14;60.91
65718;BME280;52445;52.466;-1.016;2023-06-22T00:22:02;100386.59;;;19.12;61.09
65718;BME280;52445;52.466;-1.016;2023-06-22T00:24:30;100389.31;;;19.09;60.97
65718;BME280;52445;52.466;-1.016;2023-06-22T00:26:58;100393.84;;;19.04;61.59
65718;BME280;52445;52.466;-1.016;2023-06-22T00:29:27;100397.41;;;19.01;61.57
65718;BME280;52445;52.466;-1.016;2023-06-22T00:31:56;100387.88;;;18.98;61.78
65718;BME280;52445;52.466;-1.016;2023-06-22T00:34:24;100389.69;;;18.96;61.53
65718;BME280;52445;52.466;-1.016;2023-06-22T00:36:52;100390.59;;;18.95;61.50
65718;BME280;52445;52.466;-1.016;2023-06-22T00:39:20;100383.63;;;18.94;61.60
65718;BME280;52445;52.466;-1.016;2023-06-22T00:41:47;100386.25;;;18.94;61.82
65718;BME280;52445;52.466;-1.016;2023-06-22T00:44:15;100391.50;;;18.94;62.19
65718;BME280;52445;52.466;-1.016;2023-06-22T00:46:42;100385.47;;;18.92;62.07
65718;BME280;52445;52.466;-1.016;2023-06-22T00:49:11;100403.84;;;18.92;61.70
65718;BME280;52445;52.466;-1.016;2023-06-22T00:51:40;100402.09;;;18.91;62.00
65718;BME280;52445;52.466;-1.016;2023-06-22T00:54:15;100398.72;;;18.87;62.24
65718;BME280;52445;52.466;-1.016;2023-06-22T00:56:43;100398.78;;;18.86;62.49
65718;BME280;52445;52.466;-1.016;2023-06-22T00:59:13;100400.69;;;18.81;62.90
65718;BME280;52445;52.466;-1.016;2023-06-22T01:01:44;100398.94;;;18.80;61.88
65718;BME280;52445;52.466;-1.016;2023-06-22T01:04:11;100405.06;;;18.80;62.30
65718;BME280;52445;52.466;-1.016;2023-06-22T01:06:45;100404.19;;;18.80;62.12
65718;BME280;52445;52.466;-1.016;2023-06-22T01:09:25;100401.53;;;18.81;62.59
65718;BME280;52445;52.466;-1.016;2023-06-22T01:11:54;100398.72;;;18.59;62.52
65718;BME280;52445;52.466;-1.016;2023-06-22T01:14:34;100399.16;;;18.73;62.52
65718;BME280;52445;52.466;-1.016;2023-06-22T01:17:05;100399.16;;;18.73;62.76
65718;BME280;52445;52.466;-1.016;2023-06-22T01:19:54;100402.88;;;18.66;62.39
65718;BME280;52445;52.466;-1.016;2023-06-22T01:22:27;100400.97;;;18.71;62.56
65718;BME280;52445;52.466;-1.016;2023-06-22T01:25:19;100408.03;;;18.69;62.55
65718;BME280;52445;52.466;-1.016;2023-06-22T01:30:25;100414.16;;;18.68;62.77
65718;BME280;52445;52.466;-1.016;2023-06-22T01:32:54;100427.41;;;18.65;62.92
65718;BME280;52445;52.466;-1.016;2023-06-22T01:35:22;100424.00;;;18.61;63.10
65718;BME280;52445;52.466;-1.016;2023-06-22T01:37:49;100425.78;;;18.61;63.35
65718;BME280;52445;52.466;-1.016;2023-06-22T01:40:16;100428.50;;;18.58;62.78
65718;BME280;52445;52.466;-1.016;2023-06-22T01:42:44;100424.19;;;18.55;62.86
65718;BME280;52445;52.466;-1.016;2023-06-22T01:45:12;100423.38;;;18.53;63.09
65718;BME280;52445;52.466;-1.016;2023-06-22T01:47:39;100427.81;;;18.51;62.99
65718;BME280;52445;52.466;-1.016;2023-06-22T01:50:06;100429.53;;;18.52;63.07
65718;BME280;52445;52.466;-1.016;2023-06-22T01:52:33;100425.13;;;18.53;63.65
65718;BME280;52445;52.466;-1.016;2023-06-22T01:55:00;100422.50;;;18.53;63.96
65718;BME280;52445;52.466;-1.016;2023-06-22T01:57:27;100429.50;;;18.54;63.68
65718;BME280;52445;52.466;-1.016;2023-06-22T02:00:13;100421.84;;;18.46;63.10
65718;BME280;52445;52.466;-1.016;2023-06-22T02:02:53;100425.28;;;18.48;63.92
65718;BME280;52445;52.466;-1.016;2023-06-22T02:05:23;100427.75;;;18.53;63.22
65718;BME280;52445;52.466;-1.016;2023-06-22T02:08:11;100417.53;;;18.43;63.76
65718;BME280;52445;52.466;-1.016;2023-06-22T02:10:43;100424.41;;;18.47;63.35
65718;BME280;52445;52.466;-1.016;2023-06-22T02:13:13;100426.25;;;18.45;63.38
65718;BME280;52445;52.466;-1.016;2023-06-22T02:15:40;100421.09;;;18.42;63.52
65718;BME280;52445;52.466;-1.016;2023-06-22T02:18:07;100420.22;;;18.42;64.01
65718;BME280;52445;52.466;-1.016;2023-06-22T02:20:37;100418.50;;;18.41;63.12
65718;BME280;52445;52.466;-1.016;2023-06-22T02:23:05;100422.06;;;18.38;63.15
65718;BME280;52445;52.466;-1.016;2023-06-22T02:25:33;100420.34;;;18.37;63.21
65718;BME280;52445;52.466;-1.016;2023-06-22T02:27:59;100421.34;;;18.33;63.76
65718;BME280;52445;52.466;-1.016;2023-06-22T02:30:26;100417.00;;;18.32;63.43
65718;BME280;52445;52.466;-1.016;2023-06-22T02:32:53;100417.91;;;18.31;64.02
65718;BME280;52445;52.466;-1.016;2023-06-22T02:35:27;100422.38;;;18.27;64.30
65718;BME280;52445;52.466;-1.016;2023-06-22T02:37:59;100425.16;;;18.22;64.03
65718;BME280;52445;52.466;-1.016;2023-06-22T02:40:26;100425.31;;;18.16;64.53
65718;BME280;52445;52.466;-1.016;2023-06-22T02:42:54;100430.63;;;18.13;63.90
65718;BME280;52445;52.466;-1.016;2023-06-22T02:45:20;100432.47;;;18.11;64.11
65718;BME280;52445;52.466;-1.016;2023-06-22T02:47:47;100422.03;;;18.08;64.67
65718;BME280;52445;52.466;-1.016;2023-06-22T02:50:14;100424.63;;;18.08;63.86
65718;BME280;52445;52.466;-1.016;2023-06-22T02:52:41;100428.16;;;18.07;64.64
65718;BME280;52445;52.466;-1.016;2023-06-22T02:55:08;100428.16;;;18.07;64.46
65718;BME280;52445;52.466;-1.016;2023-06-22T02:57:34;100428.22;;;18.05;64.33
65718;BME280;52445;52.466;-1.016;2023-06-22T03:00:03;100425.59;;;18.05;64.85
65718;BME280;52445;52.466;-1.016;2023-06-22T03:02:44;100416.94;;;18.02;64.34
65718;BME280;52445;52.466;-1.016;2023-06-22T03:05:11;100410.91;;;17.99;64.62
65718;BME280;52445;52.466;-1.016;2023-06-22T03:07:40;100418.78;;;17.98;64.76
65718;BME280;52445;52.466;-1.016;2023-06-22T03:10:10;100416.25;;;17.95;64.46
65718;BME280;52445;52.466;-1.016;2023-06-22T03:12:38;100420.72;;;17.91;64.83
65718;BME280;52445;52.466;-1.016;2023-06-22T03:15:07;100423.38;;;17.90;65.16
65718;BME280;52445;52.466;-1.016;2023-06-22T03:17:35;100417.94;;;17.64;65.48
65718;BME280;52445;52.466;-1.016;2023-06-22T03:20:02;100418.38;;;17.80;64.81
65718;BME280;52445;52.466;-1.016;2023-06-22T03:22:36;100419.25;;;17.81;65.36
65718;BME280;52445;52.466;-1.016;2023-06-22T03:25:03;100420.19;;;17.78;64.62
65718;BME280;52445;52.466;-1.016;2023-06-22T03:27:30;100421.16;;;17.76;64.32
65718;BME280;52445;52.466;-1.016;2023-06-22T03:29:57;100414.28;;;17.71;64.58
65718;BME280;52445;52.466;-1.016;2023-06-22T03:32:24;100414.34;;;17.68;64.37
65718;BME280;52445;52.466;-1.016;2023-06-22T03:34:51;100413.56;;;17.65;65.00
65718;BME280;52445;52.466;-1.016;2023-06-22T03:37:18;100424.97;;;17.62;64.61
65718;BME280;52445;52.466;-1.016;2023-06-22T03:39:45;100419.81;;;17.59;64.79
65718;BME280;52445;52.466;-1.016;2023-06-22T03:42:11;100418.09;;;17.58;65.10
65718;BME280;52445;52.466;-1.016;2023-06-22T03:44:38;100419.91;;;17.56;65.29
65718;BME280;52445;52.466;-1.016;2023-06-22T03:47:05;100420.78;;;17.55;64.58
65718;BME280;52445;52.466;-1.016;2023-06-22T03:49:34;100420.00;;;17.53;65.32
65718;BME280;52445;52.466;-1.016;2023-06-22T03:52:02;100423.50;;;17.52;65.67
65718;BME280;52445;52.466;-1.016;2023-06-22T03:54:29;100427.00;;;17.51;65.35
65718;BME280;52445;52.466;-1.016;2023-06-22T03:56:57;100427.91;;;17.50;65.67
65718;BME280;52445;52.466;-1.016;2023-06-22T03:59:24;100422.72;;;17.48;65.42
65718;BME280;52445;52.466;-1.016;2023-06-22T04:01:51;100424.47;;;17.47;65.50
65718;BME280;52445;52.466;-1.016;2023-06-22T04:04:18;100425.31;;;17.50;65.47
65718;BME280;52445;52.466;-1.016;2023-06-22T04:06:45;100414.03;;;17.46;65.48
65718;BME280;52445;52.466;-1.016;2023-06-22T04:09:12;100420.13;;;17.46;65.62
65718;BME280;52445;52.466;-1.016;2023-06-22T04:11:38;100422.75;;;17.46;65.77
65718;BME280;52445;52.466;-1.016;2023-06-22T04:14:05;100420.06;;;17.50;66.05
65718;BME280;52445;52.466;-1.016;2023-06-22T04:16:33;100415.69;;;17.50;66.42
65718;BME280;52445;52.466;-1.016;2023-06-22T04:18:59;100413.00;;;17.52;66.05
65718;BME280;52445;52.466;-1.016;2023-06-22T04:21:26;100413.84;;;17.54;65.81
65718;BME280;52445;52.466;-1.016;2023-06-22T04:23:53;100419.91;;;17.56;65.66
65718;BME280;52445;52.466;-1.016;2023-06-22T04:26:19;100416.41;;;17.57;66.07
65718;BME280;52445;52.466;-1.016;2023-06-22T04:28:48;100418.09;;;17.58;66.37
65718;BME280;52445;52.466;-1.016;2023-06-22T04:31:21;100420.72;;;17.58;65.62
65718;BME280;52445;52.466;-1.016;2023-06-22T04:33:48;100416.31;;;17.60;65.68
65718;BME280;52445;52.466;-1.016;2023-06-22T04:36:17;100425.06;;;17.59;65.65
65718;BME280;52445;52.466;-1.016;2023-06-22T04:38:44;100418.03;;;17.61;66.09
65718;BME280;52445;52.466;-1.016;2023-06-22T04:41:11;100414.47;;;17.64;66.01
65718;BME280;52445;52.466;-1.016;2023-06-22T04:43:40;100423.00;;;17.70;66.26
65718;BME280;52445;52.466;-1.016;2023-06-22T04:46:07;100413.31;;;17.74;66.19
65718;BME280;52445;52.466;-1.016;2023-06-22T04:48:33;100421.00;;;17.80;66.89
65718;BME280;52445;52.466;-1.016;2023-06-22T04:51:01;100417.34;;;17.86;66.11
65718;BME280;52445;52.466;-1.016;2023-06-22T04:53:31;100423.34;;;17.91;66.70
65718;BME280;52445;52.466;-1.016;2023-06-22T04:55:58;100415.38;;;17.94;67.02
65718;BME280;52445;52.466;-1.016;2023-06-22T04:58:25;100429.25;;;17.99;66.16
65718;BME280;52445;52.466;-1.016;2023-06-22T05:00:55;100432.59;;;18.05;66.35
65718;BME280;52445;52.466;-1.016;2023-06-22T05:03:25;100424.63;;;18.09;66.16
65718;BME280;52445;52.466;-1.016;2023-06-22T05:05:53;100424.44;;;18.16;66.62
65718;BME280;52445;52.466;-1.016;2023-06-22T05:08:20;100422.53;;;18.22;67.06
65718;BME280;52445;52.466;-1.016;2023-06-22T05:10:46;100426.69;;;18.30;66.18
65718;BME280;52445;52.466;-1.016;2023-06-22T05:13:31;100431.66;;;18.39;67.04
65718;BME280;52445;52.466;-1.016;2023-06-22T05:15:57;100437.56;;;18.46;66.46
65718;BME280;52445;52.466;-1.016;2023-06-22T05:18:29;100441.69;;;18.55;66.71
65718;BME280;52445;52.466;-1.016;2023-06-22T05:20:57;100432.75;;;18.62;66.55
65718;BME280;52445;52.466;-1.016;2023-06-22T05:23:24;100434.22;;;18.71;66.69
65718;BME280;52445;52.466;-1.016;2023-06-22T05:25:51;100440.84;;;18.83;66.80
65718;BME280;52445;52.466;-1.016;2023-06-22T05:28:18;100439.66;;;18.93;66.85
65718;BME280;52445;52.466;-1.016;2023-06-22T05:30:49;100441.88;;;19.06;66.85
65718;BME280;52445;52.466;-1.016;2023-06-22T05:33:16;100444.16;;;19.18;66.33
65718;BME280;52445;52.466;-1.016;2023-06-22T05:35:43;100445.47;;;19.32;66.37
65718;BME280;52445;52.466;-1.016;2023-06-22T05:38:10;100438.88;;;19.45;66.50
65718;BME280;52445;52.466;-1.016;2023-06-22T05:40:36;100444.44;;;19.63;66.68
65718;BME280;52445;52.466;-1.016;2023-06-22T05:43:03;100447.47;;;19.77;66.70
65718;BME280;52445;52.466;-1.016;2023-06-22T05:45:30;100450.44;;;19.92;66.25
65718;BME280;52445;52.466;-1.016;2023-06-22T05:47:57;100454.50;;;20.02;65.90
65718;BME280;52445;52.466;-1.016;2023-06-22T05:50:23;100459.53;;;20.09;65.74
65718;BME280;52445;52.466;-1.016;2023-06-22T05:52:50;100454.03;;;20.15;65.31
65718;BME280;52445;52.466;-1.016;2023-06-22T05:55:17;100453.84;;;20.21;65.25
65718;BME280;52445;52.466;-1.016;2023-06-22T05:57:45;100453.59;;;20.27;65.38
65718;BME280;52445;52.466;-1.016;2023-06-22T06:00:12;100449.03;;;20.33;64.92
65718;BME280;52445;52.466;-1.016;2023-06-22T06:02:40;100454.00;;;20.40;65.14
65718;BME280;52445;52.466;-1.016;2023-06-22T06:05:11;100450.97;;;20.51;65.53
65718;BME280;52445;52.466;-1.016;2023-06-22T06:07:41;100447.06;;;20.62;64.83
65718;BME280;52445;52.466;-1.016;2023-06-22T06:10:09;100453.69;;;20.72;65.08
65718;BME280;52445;52.466;-1.016;2023-06-22T06:12:36;100450.50;;;20.86;65.31
65718;BME280;52445;52.466;-1.016;2023-06-22T06:15:03;100451.75;;;21.00;64.85
65718;BME280;52445;52.466;-1.016;2023-06-22T06:17:30;100457.28;;;21.16;64.45
65718;BME280;52445;52.466;-1.016;2023-06-22T06:19:59;100456.53;;;21.35;64.46
65718;BME280;52445;52.466;-1.016;2023-06-22T06:22:25;100461.16;;;21.50;64.60
65718;BME280;52445;52.466;-1.016;2023-06-22T06:24:52;100464.06;;;21.65;64.37
65718;BME280;52445;52.466;-1.016;2023-06-22T06:27:18;100460.94;;;21.77;64.02
65718;BME280;52445;52.466;-1.016;2023-06-22T06:29:45;100469.16;;;21.90;63.91
65718;BME280;52445;52.466;-1.016;2023-06-22T06:32:14;100470.31;;;22.04;63.96
65718;BME280;52445;52.466;-1.016;2023-06-22T06:34:41;100466.16;;;22.19;63.26
65718;BME280;52445;52.466;-1.016;2023-06-22T06:37:08;100463.78;;;22.32;63.02
65718;BME280;52445;52.466;-1.016;2023-06-22T06:39:34;100462.25;;;22.47;62.58
65718;BME280;52445;52.466;-1.016;2023-06-22T06:42:01;100472.41;;;22.56;62.75
65718;BME280;52445;52.466;-1.016;2023-06-22T06:44:28;100472.75;;;22.68;62.14
65718;BME280;52445;52.466;-1.016;2023-06-22T06:46:55;100473.91;;;22.81;61.25
65718;BME280;52445;52.466;-1.016;2023-06-22T06:49:21;100465.41;;;22.94;61.33
65718;BME280;52445;52.466;-1.016;2023-06-22T06:51:48;100476.44;;;23.02;60.57
65718;BME280;52445;52.466;-1.016;2023-06-22T06:54:14;100469.63;;;23.16;60.28
65718;BME280;52445;52.466;-1.016;2023-06-22T06:56:41;100477.72;;;23.30;60.92
65718;BME280;52445;52.466;-1.016;2023-06-22T06:59:14;100474.81;;;23.54;59.98
65718;BME280;52445;52.466;-1.016;2023-06-22T07:01:42;100472.31;;;23.69;59.41
65718;BME280;52445;52.466;-1.016;2023-06-22T07:04:11;100472.03;;;23.75;59.75
65718;BME280;52445;52.466;-1.016;2023-06-22T07:06:37;100476.97;;;23.99;59.02
65718;BME280;52445;52.466;-1.016;2023-06-22T07:09:05;100476.09;;;24.16;58.69
65718;BME280;52445;52.466;-1.016;2023-06-22T07:11:33;100473.47;;;24.32;58.43
65718;BME280;52445;52.466;-1.016;2023-06-22T07:14:00;100467.47;;;24.46;58.12
65718;BME280;52445;52.466;-1.016;2023-06-22T07:16:27;100470.88;;;24.64;57.36
65718;BME280;52445;52.466;-1.016;2023-06-22T07:18:55;100471.63;;;24.83;57.36
65718;BME280;52445;52.466;-1.016;2023-06-22T07:21:22;100469.00;;;24.99;56.73
65718;BME280;52445;52.466;-1.016;2023-06-22T07:23:48;100473.59;;;25.11;56.38
65718;BME280;52445;52.466;-1.016;2023-06-22T07:26:15;100472.72;;;25.27;56.07
65718;BME280;52445;52.466;-1.016;2023-06-22T07:28:43;100480.53;;;25.45;55.92
65718;BME280;52445;52.466;-1.016;2023-06-22T07:31:10;100479.94;;;25.70;56.17
65718;BME280;52445;52.466;-1.016;2023-06-22T07:33:36;100483.78;;;25.95;55.13
65718;BME280;52445;52.466;-1.016;2023-06-22T07:36:03;100482.00;;;26.10;54.79
65718;BME280;52445;52.466;-1.016;2023-06-22T07:38:34;100475.00;;;26.24;54.87
65718;BME280;52445;52.466;-1.016;2023-06-22T07:41:02;100478.59;;;26.37;53.89
65718;BME280;52445;52.466;-1.016;2023-06-22T07:43:31;100479.53;;;26.51;53.80
65718;BME280;52445;52.466;-1.016;2023-06-22T07:46:00;100473.03;;;26.69;53.28
65718;BME280;52445;52.466;-1.016;2023-06-22T07:48:27;100464.84;;;26.87;53.29
65718;BME280;52445;52.466;-1.016;2023-06-22T07:50:54;100469.38;;;27.00;52.58
65718;BME280;52445;52.466;-1.016;2023-06-22T07:53:21;100470.47;;;27.10;52.10
65718;BME280;52445;52.466;-1.016;2023-06-22T07:55:50;100459.78;;;27.25;51.56
65718;BME280;52445;52.466;-1.016;2023-06-22T07:58:16;100466.50;;;27.43;52.05
65718;BME280;52445;52.466;-1.016;2023-06-22T08:00:46;100471.28;;;27.66;51.11
65718;BME280;52445;52.466;-1.016;2023-06-22T08:03:13;100461.25;;;27.82;50.65
65718;BME280;52445;52.466;-1.016;2023-06-22T08:05:40;100462.09;;;27.96;50.29
65718;BME280;52445;52.466;-1.016;2023-06-22T08:08:07;100462.53;;;28.03;50.58
65718;BME280;52445;52.466;-1.016;2023-06-22T08:10:33;100461.00;;;28.12;50.60
65718;BME280;52445;52.466;-1.016;2023-06-22T08:13:00;100471.66;;;28.25;50.17
65718;BME280;52445;52.466;-1.016;2023-06-22T08:15:27;100468.69;;;28.42;49.67
65718;BME280;52445;52.466;-1.016;2023-06-22T08:17:55;100469.47;;;28.56;48.60
65718;BME280;52445;52.466;-1.016;2023-06-22T08:20:22;100470.03;;;28.61;48.85
65718;BME280;52445;52.466;-1.016;2023-06-22T08:22:49;100477.84;;;28.76;48.34
65718;BME280;52445;52.466;-1.016;2023-06-22T08:25:15;100478.53;;;28.91;47.55
65718;BME280;52445;52.466;-1.016;2023-06-22T08:27:45;100484.34;;;29.09;47.59
65718;BME280;52445;52.466;-1.016;2023-06-22T08:30:12;100487.56;;;29.25;47.43
65718;BME280;52445;52.466;-1.016;2023-06-22T08:32:39;100472.13;;;29.42;47.60
65718;BME280;52445;52.466;-1.016;2023-06-22T08:35:06;100469.25;;;29.57;46.19
65718;BME280;52445;52.466;-1.016;2023-06-22T08:37:35;100467.00;;;29.75;45.76
65718;BME280;52445;52.466;-1.016;2023-06-22T08:40:04;100468.09;;;29.95;45.56
65718;BME280;52445;52.466;-1.016;2023-06-22T08:42:32;100466.53;;;30.04;45.62
65718;BME280;52445;52.466;-1.016;2023-06-22T08:44:59;100468.34;;;30.15;45.10
65718;BME280;52445;52.466;-1.016;2023-06-22T08:47:27;100459.75;;;30.23;45.12
65718;BME280;52445;52.466;-1.016;2023-06-22T08:49:56;100461.78;;;30.42;45.15
65718;BME280;52445;52.466;-1.016;2023-06-22T08:52:24;100462.97;;;30.61;44.65
65718;BME280;52445;52.466;-1.016;2023-06-22T08:54:52;100457.50;;;30.74;44.52
65718;BME280;52445;52.466;-1.016;2023-06-22T08:57:19;100458.81;;;30.80;44.27
65718;BME280;52445;52.466;-1.016;2023-06-22T08:59:46;100453.69;;;30.88;44.18
65718;BME280;52445;52.466;-1.016;2023-06-22T09:02:12;100461.66;;;30.99;44.04
65718;BME280;52445;52.466;-1.016;2023-06-22T09:04:40;100460.28;;;31.05;43.60
65718;BME280;52445;52.466;-1.016;2023-06-22T09:07:08;100463.44;;;31.32;43.05
65718;BME280;52445;52.466;-1.016;2023-06-22T09:09:35;100460.94;;;31.51;43.02
65718;BME280;52445;52.466;-1.016;2023-06-22T09:12:04;100470.59;;;31.64;41.97
65718;BME280;52445;52.466;-1.016;2023-06-22T09:14:31;100469.69;;;31.53;41.82
65718;BME280;52445;52.466;-1.016;2023-06-22T09:16:57;100471.63;;;31.51;42.36
65718;BME280;52445;52.466;-1.016;2023-06-22T09:19:27;100472.38;;;31.53;42.58
65718;BME280;52445;52.466;-1.016;2023-06-22T09:21:53;100478.47;;;31.65;42.53
65718;BME280;52445;52.466;-1.016;2023-06-22T09:24:20;100487.28;;;31.77;41.88
65718;BME280;52445;52.466;-1.016;2023-06-22T09:26:47;100486.25;;;31.90;41.43
65718;BME280;52445;52.466;-1.016;2023-06-22T09:29:13;100485.47;;;31.99;40.93
65718;BME280;52445;52.466;-1.016;2023-06-22T09:31:41;100480.97;;;32.10;40.56
65718;BME280;52445;52.466;-1.016;2023-06-22T09:34:08;100482.44;;;32.24;40.83
65718;BME280;52445;52.466;-1.016;2023-06-22T09:36:34;100483.75;;;32.39;40.92
65718;BME280;52445;52.466;-1.016;2023-06-22T09:39:01;100488.50;;;32.57;40.67
65718;BME280;52445;52.466;-1.016;2023-06-22T09:41:35;100486.56;;;32.69;40.25
65718;BME280;52445;52.466;-1.016;2023-06-22T09:44:02;100491.06;;;32.78;40.09
65718;BME280;52445;52.466;-1.016;2023-06-22T09:46:28;100486.59;;;32.89;39.96
65718;BME280;52445;52.466;-1.016;2023-06-22T09:48:55;100506.38;;;33.07;40.15
65718;BME280;52445;52.466;-1.016;2023-06-22T09:51:22;100496.50;;;33.08;38.61
65718;BME280;52445;52.466;-1.016;2023-06-22T09:53:50;100491.09;;;32.98;38.87
65718;BME280;52445;52.466;-1.016;2023-06-22T09:56:17;100488.03;;;33.03;38.57
65718;BME280;52445;52.466;-1.016;2023-06-22T09:58:45;100492.25;;;33.05;38.94
65718;BME280;52445;52.466;-1.016;2023-06-22T10:01:13;100496.22;;;33.11;38.51
65718;BME280;52445;52.466;-1.016;2023-06-22T10:03:41;100494.25;;;33.23;38.75
65718;BME280;52445;52.466;-1.016;2023-06-22T10:06:08;100489.28;;;33.28;38.06
65718;BME280;52445;52.466;-1.016;2023-06-22T10:08:35;100494.50;;;33.40;38.71
65718;BME280;52445;52.466;-1.016;2023-06-22T10:11:03;100482.19;;;33.47;37.24
65718;BME280;52445;52.466;-1.016;2023-06-22T10:13:30;100489.97;;;33.60;37.58
65718;BME280;52445;52.466;-1.016;2023-06-22T10:15:57;100492.44;;;33.81;37.36
65718;BME280;52445;52.466;-1.016;2023-06-22T10:18:23;100494.09;;;34.02;36.77
65718;BME280;52445;52.466;-1.016;2023-06-22T10:20:51;100488.84;;;34.10;37.43
65718;BME280;52445;52.466;-1.016;2023-06-22T10:23:19;100487.69;;;34.13;38.10
65718;BME280;52445;52.466;-1.016;2023-06-22T10:25:46;100495.47;;;34.06;36.29
65718;BME280;52445;52.466;-1.016;2023-06-22T10:28:13;100496.72;;;33.74;37.08
65718;BME280;52445;52.466;-1.016;2023-06-22T10:30:40;100492.81;;;33.58;37.65
65718;BME280;52445;52.466;-1.016;2023-06-22T10:33:09;100497.88;;;33.42;37.44
65718;BME280;52445;52.466;-1.016;2023-06-22T10:35:36;100500.03;;;33.28;36.99
65718;BME280;52445;52.466;-1.016;2023-06-22T10:38:04;100496.47;;;33.28;37.60
65718;BME280;52445;52.466;-1.016;2023-06-22T10:40:31;100498.03;;;33.20;37.30
65718;BME280;52445;52.466;-1.016;2023-06-22T10:42:58;100497.63;;;33.25;38.37
65718;BME280;52445;52.466;-1.016;2023-06-22T10:45:25;100491.25;;;33.26;37.16
65718;BME280;52445;52.466;-1.016;2023-06-22T10:47:52;100495.63;;;33.07;38.05
65718;BME280;52445;52.466;-1.016;2023-06-22T10:50:18;100494.47;;;32.80;37.78
65718;BME280;52445;52.466;-1.016;2023-06-22T10:52:46;100492.19;;;32.56;37.97
65718;BME280;52445;52.466;-1.016;2023-06-22T10:55:13;100490.09;;;32.28;38.20
65718;BME280;52445;52.466;-1.016;2023-06-22T10:57:40;100486.38;;;32.19;38.53
65718;BME280;52445;52.466;-1.016;2023-06-22T11:00:11;100485.13;;;32.24;38.33
65718;BME280;52445;52.466;-1.016;2023-06-22T11:02:38;100490.25;;;32.37;37.70
65718;BME280;52445;52.466;-1.016;2023-06-22T11:05:05;100487.78;;;32.55;37.80
65718;BME280;52445;52.466;-1.016;2023-06-22T11:07:32;100495.03;;;32.74;37.51
65718;BME280;52445;52.466;-1.016;2023-06-22T11:09:59;100491.06;;;32.78;37.55
65718;BME280;52445;52.466;-1.016;2023-06-22T11:12:25;100494.59;;;32.69;37.12
65718;BME280;52445;52.466;-1.016;2023-06-22T11:14:52;100497.50;;;32.46;37.08
65718;BME280;52445;52.466;-1.016;2023-06-22T11:17:19;100497.94;;;32.20;37.07
65718;BME280;52445;52.466;-1.016;2023-06-22T11:19:46;100493.56;;;31.88;37.69
65718;BME280;52445;52.466;-1.016;2023-06-22T11:22:12;100493.38;;;31.79;38.29
65718;BME280;52445;52.466;-1.016;2023-06-22T11:24:39;100491.13;;;31.85;38.33
65718;BME280;52445;52.466;-1.016;2023-06-22T11:27:06;100486.25;;;31.90;38.57
65718;BME280;52445;52.466;-1.016;2023-06-22T11:29:33;100487.41;;;31.97;37.85
65718;BME280;52445;52.466;-1.016;2023-06-22T11:32:05;100488.75;;;32.13;37.86
65718;BME280;52445;52.466;-1.016;2023-06-22T11:34:31;100484.72;;;32.28;37.15
65718;BME280;52445;52.466;-1.016;2023-06-22T11:36:58;100483.81;;;32.18;37.21
65718;BME280;52445;52.466;-1.016;2023-06-22T11:39:25;100492.34;;;32.23;37.94
65718;BME280;52445;52.466;-1.016;2023-06-22T11:42:06;100484.19;;;32.35;37.70
65718;BME280;52445;52.466;-1.016;2023-06-22T11:44:33;100497.88;;;32.41;37.47
65718;BME280;52445;52.466;-1.016;2023-06-22T11:47:00;100484.47;;;32.41;37.77
65718;BME280;52445;52.466;-1.016;2023-06-22T11:49:27;100480.50;;;32.36;37.17
65718;BME280;52445;52.466;-1.016;2023-06-22T11:51:54;100491.34;;;32.24;36.71
65718;BME280;52445;52.466;-1.016;2023-06-22T11:54:20;100478.16;;;32.11;37.27
65718;BME280;52445;52.466;-1.016;2023-06-22T11:56:47;100469.84;;;32.04;36.59
65718;BME280;52445;52.466;-1.016;2023-06-22T11:59:14;100472.78;;;32.01;36.78
65718;BME280;52445;52.466;-1.016;2023-06-22T12:01:41;100475.09;;;32.16;36.76
65718;BME280;52445;52.466;-1.016;2023-06-22T12:04:07;100476.41;;;32.31;36.31
65718;BME280;52445;52.466;-1.016;2023-06-22T12:06:38;100482.66;;;32.42;36.62
65718;BME280;52445;52.466;-1.016;2023-06-22T12:09:09;100476.91;;;32.56;36.03
65718;BME280;52445;52.466;-1.016;2023-06-22T12:11:35;100474.13;;;32.68;36.42
65718;BME280;52445;52.466;-1.016;2023-06-22T12:14:02;100468.47;;;32.71;36.04
65718;BME280;52445;52.466;-1.016;2023-06-22T12:16:28;100465.94;;;32.79;36.23
65718;BME280;52445;52.466;-1.016;2023-06-22T12:18:55;100467.38;;;32.93;36.36
65718;BME280;52445;52.466;-1.016;2023-06-22T12:21:22;100468.50;;;32.91;35.74
65718;BME280;52445;52.466;-1.016;2023-06-22T12:23:49;100468.63;;;32.79;35.59
65718;BME280;52445;52.466;-1.016;2023-06-22T12:26:16;100459.16;;;32.75;35.32
65718;BME280;52445;52.466;-1.016;2023-06-22T12:28:43;100466.78;;;32.70;35.63
65718;BME280;52445;52.466;-1.016;2023-06-22T12:31:10;100469.63;;;32.78;35.66
65718;BME280;52445;52.466;-1.016;2023-06-22T12:33:36;100475.25;;;32.75;35.36
65718;BME280;52445;52.466;-1.016;2023-06-22T12:36:03;100472.69;;;32.64;35.68
65718;BME280;52445;52.466;-1.016;2023-06-22T12:38:31;100464.25;;;32.59;35.98
65718;BME280;52445;52.466;-1.016;2023-06-22T12:40:58;100458.53;;;32.42;36.24
65718;BME280;52445;52.466;-1.016;2023-06-22T12:43:25;100454.00;;;32.32;35.98
65718;BME280;52445;52.466;-1.016;2023-06-22T12:45:51;100452.28;;;32.31;35.69
65718;BME280;52445;52.466;-1.016;2023-06-22T12:48:20;100448.34;;;32.36;36.09